sensor_id;sensor_type;location;lat;lon;timestamp;pressure;altitude;pressure_sealevel;temperature;humidity
29815;BME280;16708;50.426;7.664;2023-07-31T00:00:25;985.20;;;17.20;100.00
29815;BME280;16708;50.426;7.664;2023-07-31T00:05:20;985.19;;;17.13;100.00
29815;BME280;16708;50.426;7.664;2023-07-31T00:10:15;985.16;;;17.06;100.00
29815;BME280;16708;50.426;7.664;2023-07-31T00:15:09;985.08;;;17.06;100.00
29815;BME280;16708;50.426;7.664;2023-07-31T00:20:04;984.94;;;17.14;100.00
29815;BME280;16708;50.426;7.664;2023-07-31T00:24:58;984.93;;;17.16;100.00
29815;BME280;16708;50.426;7.664;2023-07-31T00:29:53;984.84;;;17.15;100.00
29815;BME280;16708;50.426;7.664;2023-07-31T00:34:46;984.77;;;17.14;100.00
29815;BME280;16708;50.426;7.664;2023-07-31T00:39:39;984.89;;;17.11;100.00
29815;BME280;16708;50.426;7.664;2023-07-31T00:44:34;984.81;;;17.11;100.00
29815;BME280;16708;50.426;7.664;2023-07-31T00:49:28;984.80;;;17.04;100.00
29815;BME280;16708;50.426;7.664;2023-07-31T00:54:22;984.75;;;17.05;100.00
29815;BME280;16708;50.426;7.664;2023-07-31T00:59:17;984.74;;;17.11;100.00
29815;BME280;16708;50.426;7.664;2023-07-31T01:04:11;984.61;;;17.08;100.00
29815;BME280;16708;50.426;7.664;2023-07-31T01:09:06;984.67;;;17.07;100.00
29815;BME280;16708;50.426;7.664;2023-07-31T01:14:00;984.72;;;16.95;100.00
29815;BME280;16708;50.426;7.664;2023-07-31T01:18:55;984.64;;;16.94;100.00
29815;BME280;16708;50.426;7.664;2023-07-31T01:28:43;984.69;;;16.93;100.00
29815;BME280;16708;50.426;7.664;2023-07-31T01:33:38;984.52;;;16.88;100.00
29815;BME280;16708;50.426;7.664;2023-07-31T01:38:32;984.56;;;16.89;100.00
29815;BME280;16708;50.426;7.664;2023-07-31T01:43:26;984.57;;;16.91;100.00
29815;BME280;16708;50.426;7.664;2023-07-31T01:48:21;984.51;;;16.92;100.00
29815;BME280;16708;50.426;7.664;2023-07-31T01:53:15;984.50;;;16.85;100.00
29815;BME280;16708;50.426;7.664;2023-07-31T01:58:09;984.46;;;16.88;100.00
29815;BME280;16708;50.426;7.664;2023-07-31T02:03:02;984.50;;;16.90;100.00
29815;BME280;16708;50.426;7.664;2023-07-31T02:07:56;984.44;;;16.90;100.00
29815;BME280;16708;50.426;7.664;2023-07-31T02:12:50;984.44;;;16.81;100.00
29815;BME280;16708;50.426;7.664;2023-07-31T02:17:43;984.30;;;16.81;100.00
29815;BME280;16708;50.426;7.664;2023-07-31T02:22:38;984.25;;;16.85;100.00
29815;BME280;16708;50.426;7.664;2023-07-31T02:27:32;984.26;;;16.74;100.00
29815;BME280;16708;50.426;7.664;2023-07-31T02:32:26;984.23;;;16.62;100.00
29815;BME280;16708;50.426;7.664;2023-07-31T02:37:20;984.21;;;16.61;100.00
29815;BME280;16708;50.426;7.664;2023-07-31T02:42:14;984.31;;;16.70;100.00
29815;BME280;16708;50.426;7.664;2023-07-31T02:47:08;984.25;;;16.70;100.00
29815;BME280;16708;50.426;7.664;2023-07-31T02:52:03;984.26;;;16.72;100.00
29815;BME280;16708;50.426;7.664;2023-07-31T02:56:58;984.19;;;16.70;100.00
29815;BME280;16708;50.426;7.664;2023-07-31T03:01:51;984.25;;;16.69;100.00
29815;BME280;16708;50.426;7.664;2023-07-31T03:06:46;984.18;;;16.68;100.00
29815;BME280;16708;50.426;7.664;2023-07-31T03:11:40;984.23;;;16.69;100.00
29815;BME280;16708;50.426;7.664;2023-07-31T03:16:35;984.11;;;16.61;100.00
29815;BME280;16708;50.426;7.664;2023-07-31T03:21:29;984.18;;;16.68;100.00
29815;BME280;16708;50.426;7.664;2023-07-31T03:26:23;984.17;;;16.63;100.00
29815;BME280;16708;50.426;7.664;2023-07-31T03:31:18;984.19;;;16.60;100.00
29815;BME280;16708;50.426;7.664;2023-07-31T03:36:12;984.20;;;16.57;100.00
29815;BME280;16708;50.426;7.664;2023-07-31T03:41:07;984.08;;;16.55;100.00
29815;BME280;16708;50.426;7.664;2023-07-31T03:46:01;984.00;;;16.55;100.00
29815;BME280;16708;50.426;7.664;2023-07-31T03:50:56;984.00;;;16.53;100.00
29815;BME280;16708;50.426;7.664;2023-07-31T03:55:51;984.02;;;16.46;100.00
29815;BME280;16708;50.426;7.664;2023-07-31T04:00:45;983.80;;;16.46;100.00
29815;BME280;16708;50.426;7.664;2023-07-31T04:05:39;983.70;;;16.41;100.00
29815;BME280;16708;50.426;7.664;2023-07-31T04:10:34;983.63;;;16.38;100.00
29815;BME280;16708;50.426;7.664;2023-07-31T04:15:28;983.62;;;16.38;100.00
29815;BME280;16708;50.426;7.664;2023-07-31T04:20:22;983.77;;;16.37;100.00
29815;BME280;16708;50.426;7.664;2023-07-31T04:25:17;983.78;;;16.44;100.00
29815;BME280;16708;50.426;7.664;2023-07-31T04:30:10;983.72;;;16.45;100.00
29815;BME280;16708;50.426;7.664;2023-07-31T04:35:03;983.81;;;16.48;100.00
29815;BME280;16708;50.426;7.664;2023-07-31T04:39:57;983.81;;;16.51;100.00
29815;BME280;16708;50.426;7.664;2023-07-31T04:44:51;983.75;;;16.56;100.00
29815;BME280;16708;50.426;7.664;2023-07-31T04:49:46;983.80;;;16.55;100.00
29815;BME280;16708;50.426;7.664;2023-07-31T04:54:40;983.69;;;16.58;100.00
29815;BME280;16708;50.426;7.664;2023-07-31T04:59:35;983.80;;;16.62;100.00
29815;BME280;16708;50.426;7.664;2023-07-31T05:04:29;983.69;;;16.63;100.00
29815;BME280;16708;50.426;7.664;2023-07-31T05:09:24;983.74;;;16.64;100.00
29815;BME280;16708;50.426;7.664;2023-07-31T05:14:18;983.84;;;16.56;100.00
29815;BME280;16708;50.426;7.664;2023-07-31T05:19:13;983.67;;;16.57;100.00
29815;BME280;16708;50.426;7.664;2023-07-31T05:24:07;983.92;;;16.58;100.00
29815;BME280;16708;50.426;7.664;2023-07-31T05:29:02;983.74;;;16.61;100.00
29815;BME280;16708;50.426;7.664;2023-07-31T05:33:56;983.57;;;16.69;100.00
29815;BME280;16708;50.426;7.664;2023-07-31T05:38:50;983.49;;;16.69;100.00
29815;BME280;16708;50.426;7.664;2023-07-31T05:43:44;983.53;;;16.68;100.00
29815;BME280;16708;50.426;7.664;2023-07-31T05:48:39;983.54;;;16.67;100.00
29815;BME280;16708;50.426;7.664;2023-07-31T05:53:33;983.49;;;16.67;100.00
29815;BME280;16708;50.426;7.664;2023-07-31T05:58:27;983.53;;;16.68;100.00
29815;BME280;16708;50.426;7.664;2023-07-31T06:03:21;983.35;;;16.81;100.00
29815;BME280;16708;50.426;7.664;2023-07-31T06:08:15;983.44;;;17.01;100.00
29815;BME280;16708;50.426;7.664;2023-07-31T06:13:10;983.36;;;17.28;100.00
29815;BME280;16708;50.426;7.664;2023-07-31T06:18:04;983.33;;;17.25;100.00
29815;BME280;16708;50.426;7.664;2023-07-31T06:22:59;983.24;;;17.61;100.00
29815;BME280;16708;50.426;7.664;2023-07-31T06:27:54;983.39;;;17.59;100.00
29815;BME280;16708;50.426;7.664;2023-07-31T06:32:49;983.26;;;17.87;100.00
29815;BME280;16708;50.426;7.664;2023-07-31T06:37:43;983.37;;;17.81;100.00
29815;BME280;16708;50.426;7.664;2023-07-31T06:42:37;983.19;;;17.49;100.00
29815;BME280;16708;50.426;7.664;2023-07-31T06:47:31;983.15;;;17.15;100.00
29815;BME280;16708;50.426;7.664;2023-07-31T06:52:25;983.02;;;16.93;100.00
29815;BME280;16708;50.426;7.664;2023-07-31T06:57:20;983.08;;;16.97;100.00
29815;BME280;16708;50.426;7.664;2023-07-31T07:02:14;983.10;;;17.08;100.00
29815;BME280;16708;50.426;7.664;2023-07-31T07:07:09;983.06;;;17.17;100.00
29815;BME280;16708;50.426;7.664;2023-07-31T07:12:04;983.04;;;17.26;100.00
29815;BME280;16708;50.426;7.664;2023-07-31T07:16:58;983.14;;;17.34;100.00
29815;BME280;16708;50.426;7.664;2023-07-31T07:21:53;983.06;;;17.75;100.00
29815;BME280;16708;50.426;7.664;2023-07-31T07:26:47;983.02;;;18.22;100.00
29815;BME280;16708;50.426;7.664;2023-07-31T07:31:42;983.05;;;18.39;100.00
29815;BME280;16708;50.426;7.664;2023-07-31T07:36:35;982.90;;;19.08;100.00
29815;BME280;16708;50.426;7.664;2023-07-31T07:41:30;982.89;;;19.00;100.00
29815;BME280;16708;50.426;7.664;2023-07-31T07:46:24;982.67;;;19.01;100.00
29815;BME280;16708;50.426;7.664;2023-07-31T07:51:19;982.79;;;18.50;100.00
29815;BME280;16708;50.426;7.664;2023-07-31T07:56:13;982.72;;;18.90;100.00
29815;BME280;16708;50.426;7.664;2023-07-31T08:01:08;982.87;;;18.76;100.00
29815;BME280;16708;50.426;7.664;2023-07-31T08:06:02;982.86;;;18.48;100.00
29815;BME280;16708;50.426;7.664;2023-07-31T08:10:57;982.79;;;18.23;100.00
29815;BME280;16708;50.426;7.664;2023-07-31T08:15:51;982.73;;;17.87;100.00
29815;BME280;16708;50.426;7.664;2023-07-31T08:20:45;982.96;;;17.20;100.00
29815;BME280;16708;50.426;7.664;2023-07-31T08:25:39;983.03;;;16.94;100.00
29815;BME280;16708;50.426;7.664;2023-07-31T08:30:33;983.00;;;16.59;100.00
29815;BME280;16708;50.426;7.664;2023-07-31T08:35:26;982.91;;;16.36;100.00
29815;BME280;16708;50.426;7.664;2023-07-31T08:40:21;982.83;;;16.25;100.00
29815;BME280;16708;50.426;7.664;2023-07-31T08:45:15;982.82;;;16.33;100.00
29815;BME280;16708;50.426;7.664;2023-07-31T08:50:10;982.82;;;16.45;100.00
29815;BME280;16708;50.426;7.664;2023-07-31T08:55:04;982.85;;;16.49;100.00
29815;BME280;16708;50.426;7.664;2023-07-31T08:59:59;982.79;;;16.73;100.00
29815;BME280;16708;50.426;7.664;2023-07-31T09:04:54;982.74;;;16.64;100.00
29815;BME280;16708;50.426;7.664;2023-07-31T09:09:47;982.69;;;16.86;100.00
29815;BME280;16708;50.426;7.664;2023-07-31T09:14:41;982.70;;;16.73;100.00
29815;BME280;16708;50.426;7.664;2023-07-31T09:29:23;982.47;;;17.11;100.00
29815;BME280;16708;50.426;7.664;2023-07-31T09:39:12;982.42;;;17.20;100.00
29815;BME280;16708;50.426;7.664;2023-07-31T09:53:55;982.28;;;17.34;100.00
29815;BME280;16708;50.426;7.664;2023-07-31T09:58:49;982.28;;;17.45;100.00
29815;BME280;16708;50.426;7.664;2023-07-31T10:03:43;982.21;;;17.20;100.00
29815;BME280;16708;50.426;7.664;2023-07-31T10:08:38;982.25;;;17.35;100.00
29815;BME280;16708;50.426;7.664;2023-07-31T10:13:32;982.12;;;17.27;100.00
29815;BME280;16708;50.426;7.664;2023-07-31T10:18:26;982.22;;;17.09;100.00
29815;BME280;16708;50.426;7.664;2023-07-31T10:23:18;982.14;;;17.12;100.00
29815;BME280;16708;50.426;7.664;2023-07-31T10:28:13;982.12;;;17.17;100.00
29815;BME280;16708;50.426;7.664;2023-07-31T10:33:07;982.05;;;17.11;100.00
29815;BME280;16708;50.426;7.664;2023-07-31T10:38:02;982.11;;;17.15;100.00
29815;BME280;16708;50.426;7.664;2023-07-31T10:42:56;982.01;;;17.10;100.00
29815;BME280;16708;50.426;7.664;2023-07-31T11:07:27;981.62;;;17.64;100.00
29815;BME280;16708;50.426;7.664;2023-07-31T11:12:21;981.52;;;17.92;100.00
29815;BME280;16708;50.426;7.664;2023-07-31T11:17:15;981.60;;;18.18;100.00
29815;BME280;16708;50.426;7.664;2023-07-31T11:22:10;981.60;;;18.39;100.00
29815;BME280;16708;50.426;7.664;2023-07-31T11:27:05;981.69;;;18.51;100.00
29815;BME280;16708;50.426;7.664;2023-07-31T11:31:59;981.70;;;18.53;100.00
29815;BME280;16708;50.426;7.664;2023-07-31T11:36:54;981.71;;;18.57;100.00
29815;BME280;16708;50.426;7.664;2023-07-31T11:41:48;981.65;;;18.65;100.00
29815;BME280;16708;50.426;7.664;2023-07-31T11:46:43;981.68;;;18.77;100.00
29815;BME280;16708;50.426;7.664;2023-07-31T11:51:37;981.60;;;19.06;100.00
29815;BME280;16708;50.426;7.664;2023-07-31T11:56:31;981.53;;;19.09;100.00
29815;BME280;16708;50.426;7.664;2023-07-31T12:01:25;981.55;;;19.08;100.00
29815;BME280;16708;50.426;7.664;2023-07-31T12:06:19;981.57;;;19.40;100.00
29815;BME280;16708;50.426;7.664;2023-07-31T12:11:13;981.45;;;19.44;100.00
29815;BME280;16708;50.426;7.664;2023-07-31T12:16:08;981.45;;;19.79;100.00
29815;BME280;16708;50.426;7.664;2023-07-31T12:21:03;981.44;;;19.84;100.00
29815;BME280;16708;50.426;7.664;2023-07-31T12:25:58;981.52;;;19.76;100.00
29815;BME280;16708;50.426;7.664;2023-07-31T12:30:53;981.46;;;20.20;100.00
29815;BME280;16708;50.426;7.664;2023-07-31T12:35:47;981.27;;;20.76;100.00
29815;BME280;16708;50.426;7.664;2023-07-31T12:40:41;981.20;;;21.38;100.00
29815;BME280;16708;50.426;7.664;2023-07-31T12:45:37;981.16;;;21.46;100.00
29815;BME280;16708;50.426;7.664;2023-07-31T12:50:31;981.16;;;20.61;100.00
29815;BME280;16708;50.426;7.664;2023-07-31T12:55:25;981.21;;;20.14;100.00
29815;BME280;16708;50.426;7.664;2023-07-31T13:00:18;981.25;;;20.11;100.00
29815;BME280;16708;50.426;7.664;2023-07-31T13:05:12;981.15;;;19.77;100.00
29815;BME280;16708;50.426;7.664;2023-07-31T13:10:08;981.24;;;19.47;100.00
29815;BME280;16708;50.426;7.664;2023-07-31T13:15:01;981.24;;;19.29;100.00
29815;BME280;16708;50.426;7.664;2023-07-31T13:19:54;981.12;;;19.38;100.00
29815;BME280;16708;50.426;7.664;2023-07-31T13:24:48;981.15;;;19.30;100.00
29815;BME280;16708;50.426;7.664;2023-07-31T13:29:42;981.07;;;19.25;100.00
29815;BME280;16708;50.426;7.664;2023-07-31T13:34:37;981.28;;;19.25;100.00
29815;BME280;16708;50.426;7.664;2023-07-31T13:39:31;981.21;;;19.24;100.00
29815;BME280;16708;50.426;7.664;2023-07-31T13:44:25;981.18;;;19.09;100.00
29815;BME280;16708;50.426;7.664;2023-07-31T13:49:20;981.10;;;19.19;100.00
29815;BME280;16708;50.426;7.664;2023-07-31T13:54:14;981.02;;;19.29;100.00
29815;BME280;16708;50.426;7.664;2023-07-31T13:59:09;981.16;;;19.24;100.00
29815;BME280;16708;50.426;7.664;2023-07-31T14:04:04;981.10;;;19.06;100.00
29815;BME280;16708;50.426;7.664;2023-07-31T14:08:58;981.01;;;19.15;100.00
29815;BME280;16708;50.426;7.664;2023-07-31T14:13:53;980.92;;;19.06;100.00
29815;BME280;16708;50.426;7.664;2023-07-31T14:18:47;980.76;;;18.85;100.00
29815;BME280;16708;50.426;7.664;2023-07-31T14:23:42;980.77;;;18.87;100.00
29815;BME280;16708;50.426;7.664;2023-07-31T14:28:36;981.03;;;18.87;100.00
29815;BME280;16708;50.426;7.664;2023-07-31T14:33:31;980.93;;;18.47;100.00
29815;BME280;16708;50.426;7.664;2023-07-31T14:38:25;980.91;;;18.39;100.00
29815;BME280;16708;50.426;7.664;2023-07-31T14:43:20;980.95;;;18.31;100.00
29815;BME280;16708;50.426;7.664;2023-07-31T14:48:14;981.00;;;18.28;100.00
29815;BME280;16708;50.426;7.664;2023-07-31T14:53:08;980.85;;;18.14;100.00
29815;BME280;16708;50.426;7.664;2023-07-31T14:58:02;980.94;;;18.34;100.00
29815;BME280;16708;50.426;7.664;2023-07-31T15:02:57;981.00;;;18.23;100.00
29815;BME280;16708;50.426;7.664;2023-07-31T15:07:50;980.93;;;18.11;100.00
29815;BME280;16708;50.426;7.664;2023-07-31T15:12:44;981.12;;;18.13;100.00
29815;BME280;16708;50.426;7.664;2023-07-31T15:17:38;981.25;;;18.10;100.00
29815;BME280;16708;50.426;7.664;2023-07-31T15:22:33;981.08;;;18.07;100.00
29815;BME280;16708;50.426;7.664;2023-07-31T15:27:27;981.16;;;17.97;100.00
29815;BME280;16708;50.426;7.664;2023-07-31T15:32:21;980.97;;;17.91;100.00
29815;BME280;16708;50.426;7.664;2023-07-31T15:37:15;980.84;;;17.83;100.00
29815;BME280;16708;50.426;7.664;2023-07-31T15:42:10;980.92;;;17.86;100.00
29815;BME280;16708;50.426;7.664;2023-07-31T15:47:04;980.76;;;17.91;100.00
29815;BME280;16708;50.426;7.664;2023-07-31T15:51:57;980.57;;;18.12;100.00
29815;BME280;16708;50.426;7.664;2023-07-31T15:56:52;980.51;;;18.32;100.00
29815;BME280;16708;50.426;7.664;2023-07-31T16:01:46;980.40;;;18.19;100.00
29815;BME280;16708;50.426;7.664;2023-07-31T16:06:40;980.42;;;18.17;100.00
29815;BME280;16708;50.426;7.664;2023-07-31T16:11:35;980.33;;;17.93;100.00
29815;BME280;16708;50.426;7.664;2023-07-31T16:16:29;980.29;;;17.86;100.00
29815;BME280;16708;50.426;7.664;2023-07-31T16:21:23;980.15;;;17.87;100.00
29815;BME280;16708;50.426;7.664;2023-07-31T16:26:17;980.29;;;17.76;100.00
29815;BME280;16708;50.426;7.664;2023-07-31T16:31:11;980.27;;;17.61;100.00
29815;BME280;16708;50.426;7.664;2023-07-31T16:36:05;980.23;;;17.24;100.00
29815;BME280;16708;50.426;7.664;2023-07-31T16:40:59;980.27;;;16.91;100.00
29815;BME280;16708;50.426;7.664;2023-07-31T16:45:53;980.01;;;16.60;100.00
29815;BME280;16708;50.426;7.664;2023-07-31T16:50:47;980.13;;;16.37;100.00
29815;BME280;16708;50.426;7.664;2023-07-31T16:55:41;979.97;;;16.19;100.00
29815;BME280;16708;50.426;7.664;2023-07-31T17:00:35;979.93;;;16.15;100.00
29815;BME280;16708;50.426;7.664;2023-07-31T17:05:29;979.82;;;16.15;100.00
29815;BME280;16708;50.426;7.664;2023-07-31T17:10:24;979.73;;;16.18;100.00
29815;BME280;16708;50.426;7.664;2023-07-31T17:15:18;979.72;;;16.09;100.00
29815;BME280;16708;50.426;7.664;2023-07-31T17:20:13;979.59;;;16.01;100.00
29815;BME280;16708;50.426;7.664;2023-07-31T17:25:07;979.43;;;15.96;100.00
29815;BME280;16708;50.426;7.664;2023-07-31T17:30:02;979.41;;;15.91;100.00
29815;BME280;16708;50.426;7.664;2023-07-31T17:34:56;979.32;;;15.86;100.00
29815;BME280;16708;50.426;7.664;2023-07-31T17:39:51;979.23;;;15.95;100.00
29815;BME280;16708;50.426;7.664;2023-07-31T17:44:45;979.16;;;16.02;100.00
29815;BME280;16708;50.426;7.664;2023-07-31T17:49:39;979.15;;;16.16;100.00
29815;BME280;16708;50.426;7.664;2023-07-31T17:54:34;979.16;;;16.18;100.00
29815;BME280;16708;50.426;7.664;2023-07-31T17:59:28;979.10;;;16.19;100.00
29815;BME280;16708;50.426;7.664;2023-07-31T18:04:22;979.08;;;16.15;100.00
29815;BME280;16708;50.426;7.664;2023-07-31T18:09:17;978.87;;;16.11;100.00
29815;BME280;16708;50.426;7.664;2023-07-31T18:14:11;978.80;;;16.19;100.00
29815;BME280;16708;50.426;7.664;2023-07-31T18:19:05;978.68;;;16.26;100.00
29815;BME280;16708;50.426;7.664;2023-07-31T18:23:59;978.75;;;16.14;100.00
29815;BME280;16708;50.426;7.664;2023-07-31T18:28:52;978.60;;;16.15;100.00
29815;BME280;16708;50.426;7.664;2023-07-31T18:33:46;978.69;;;16.15;100.00
29815;BME280;16708;50.426;7.664;2023-07-31T18:38:41;978.57;;;16.09;100.00
29815;BME280;16708;50.426;7.664;2023-07-31T18:43:35;978.73;;;16.09;100.00
29815;BME280;16708;50.426;7.664;2023-07-31T18:48:29;978.70;;;16.08;100.00
29815;BME280;16708;50.426;7.664;2023-07-31T18:53:23;978.77;;;16.25;100.00
29815;BME280;16708;50.426;7.664;2023-07-31T18:58:18;978.54;;;16.34;100.00
29815;BME280;16708;50.426;7.664;2023-07-31T19:03:08;978.45;;;16.23;100.00
29815;BME280;16708;50.426;7.664;2023-07-31T19:08:02;978.49;;;16.25;100.00
29815;BME280;16708;50.426;7.664;2023-07-31T19:12:54;978.47;;;16.31;100.00
29815;BME280;16708;50.426;7.664;2023-07-31T19:17:49;978.39;;;16.34;100.00
29815;BME280;16708;50.426;7.664;2023-07-31T19:22:43;978.32;;;16.38;100.00
29815;BME280;16708;50.426;7.664;2023-07-31T19:27:38;978.19;;;16.59;100.00
29815;BME280;16708;50.426;7.664;2023-07-31T19:32:31;978.27;;;16.51;100.00
29815;BME280;16708;50.426;7.664;2023-07-31T19:37:26;978.07;;;16.50;100.00
29815;BME280;16708;50.426;7.664;2023-07-31T19:42:20;978.12;;;16.45;100.00
29815;BME280;16708;50.426;7.664;2023-07-31T19:47:15;978.27;;;16.19;100.00
29815;BME280;16708;50.426;7.664;2023-07-31T19:52:09;978.20;;;15.94;100.00
29815;BME280;16708;50.426;7.664;2023-07-31T19:57:03;978.14;;;15.82;100.00
29815;BME280;16708;50.426;7.664;2023-07-31T20:01:57;978.12;;;15.77;100.00
29815;BME280;16708;50.426;7.664;2023-07-31T20:06:52;978.06;;;15.70;100.00
29815;BME280;16708;50.426;7.664;2023-07-31T20:11:46;977.89;;;15.68;100.00
29815;BME280;16708;50.426;7.664;2023-07-31T20:16:42;977.87;;;15.63;100.00
29815;BME280;16708;50.426;7.664;2023-07-31T20:21:35;977.91;;;15.57;100.00
29815;BME280;16708;50.426;7.664;2023-07-31T20:26:28;977.93;;;15.56;100.00
29815;BME280;16708;50.426;7.664;2023-07-31T20:31:22;977.78;;;15.54;100.00
29815;BME280;16708;50.426;7.664;2023-07-31T20:36:17;977.82;;;15.52;100.00
29815;BME280;16708;50.426;7.664;2023-07-31T20:41:09;977.77;;;15.51;100.00
29815;BME280;16708;50.426;7.664;2023-07-31T20:46:03;977.76;;;15.49;100.00
29815;BME280;16708;50.426;7.664;2023-07-31T20:50:58;977.66;;;15.52;100.00
29815;BME280;16708;50.426;7.664;2023-07-31T20:55:53;977.52;;;15.51;100.00
29815;BME280;16708;50.426;7.664;2023-07-31T21:00:47;977.46;;;15.54;100.00
29815;BME280;16708;50.426;7.664;2023-07-31T21:05:42;977.19;;;15.52;100.00
29815;BME280;16708;50.426;7.664;2023-07-31T21:10:36;977.03;;;15.54;100.00
29815;BME280;16708;50.426;7.664;2023-07-31T21:15:30;976.95;;;15.54;100.00
29815;BME280;16708;50.426;7.664;2023-07-31T21:20:24;976.77;;;15.58;100.00
29815;BME280;16708;50.426;7.664;2023-07-31T21:25:19;976.78;;;15.63;100.00
29815;BME280;16708;50.426;7.664;2023-07-31T21:30:13;976.56;;;15.67;100.00
29815;BME280;16708;50.426;7.664;2023-07-31T21:35:08;976.44;;;15.71;100.00
29815;BME280;16708;50.426;7.664;2023-07-31T21:40:02;976.43;;;15.73;100.00
29815;BME280;16708;50.426;7.664;2023-07-31T21:44:57;976.61;;;15.73;100.00
29815;BME280;16708;50.426;7.664;2023-07-31T21:49:51;976.31;;;15.74;100.00
29815;BME280;16708;50.426;7.664;2023-07-31T21:54:45;976.34;;;15.73;100.00
29815;BME280;16708;50.426;7.664;2023-07-31T21:59:40;976.31;;;15.74;100.00
29815;BME280;16708;50.426;7.664;2023-07-31T22:04:34;976.37;;;15.76;100.00
29815;BME280;16708;50.426;7.664;2023-07-31T22:09:29;976.35;;;15.78;100.00
29815;BME280;16708;50.426;7.664;2023-07-31T22:14:23;976.30;;;15.77;100.00
29815;BME280;16708;50.426;7.664;2023-07-31T22:19:18;976.22;;;15.76;100.00
29815;BME280;16708;50.426;7.664;2023-07-31T22:24:12;976.10;;;15.77;100.00
29815;BME280;16708;50.426;7.664;2023-07-31T22:29:06;976.15;;;15.79;100.00
29815;BME280;16708;50.426;7.664;2023-07-31T22:34:00;976.11;;;15.80;100.00
29815;BME280;16708;50.426;7.664;2023-07-31T22:38:55;975.99;;;15.80;100.00
29815;BME280;16708;50.426;7.664;2023-07-31T22:43:49;975.93;;;15.82;100.00
29815;BME280;16708;50.426;7.664;2023-07-31T22:48:44;975.92;;;15.83;100.00
29815;BME280;16708;50.426;7.664;2023-07-31T22:53:38;975.79;;;15.83;100.00
29815;BME280;16708;50.426;7.664;2023-07-31T22:58:32;975.66;;;15.86;100.00
29815;BME280;16708;50.426;7.664;2023-07-31T23:03:26;975.45;;;15.84;100.00
29815;BME280;16708;50.426;7.664;2023-07-31T23:08:21;975.37;;;15.86;100.00
29815;BME280;16708;50.426;7.664;2023-07-31T23:13:15;975.11;;;15.83;100.00
29815;BME280;16708;50.426;7.664;2023-07-31T23:18:10;975.02;;;15.85;100.00
29815;BME280;16708;50.426;7.664;2023-07-31T23:23:03;974.91;;;15.85;100.00
29815;BME280;16708;50.426;7.664;2023-07-31T23:27:58;974.74;;;15.85;100.00
29815;BME280;16708;50.426;7.664;2023-07-31T23:32:55;974.69;;;15.82;100.00
29815;BME280;16708;50.426;7.664;2023-07-31T23:37:45;974.47;;;15.83;100.00
29815;BME280;16708;50.426;7.664;2023-07-31T23:42:40;974.45;;;15.81;100.00
29815;BME280;16708;50.426;7.664;2023-07-31T23:47:35;974.23;;;15.79;100.00
29815;BME280;16708;50.426;7.664;2023-07-31T23:52:29;974.00;;;15.81;100.00
29815;BME280;16708;50.426;7.664;2023-07-31T23:57:24;973.73;;;15.82;100.00
